Time;durP1;ratioP1;P1;durP2;ratioP2;P2;SDS_P1;SDS_P2;PMS_P1;PMS_P2;Temp;Humidity;BMP_temperature;BMP_pressure;BME280_temperature;BME280_humidity;BME280_pressure;Samples;Min_cycle;Max_cycle;Signal;HPM_P1;HPM_P2
2023/10/04 00:03:32;;;;;;;9.50;1.43;;;;;;;13.83;100.00;100787.38;5023117;57;1141048;-72
2023/10/04 00:08:37;;;;;;;3.43;0.97;;;;;;;13.75;100.00;100787.20;5078146;56;1140765;-73
2023/10/04 00:13:46;;;;;;;3.87;1.13;;;;;;;13.71;100.00;100802.57;5142679;55;1140846;-73
2023/10/04 00:18:50;;;;;;;2.93;1.00;;;;;;;13.66;100.00;100816.25;5164986;55;1140697;-72
2023/10/04 00:24:00;;;;;;;11.33;1.53;;;;;;;13.63;100.00;100822.30;5185388;55;1140988;-74
2023/10/04 00:29:08;;;;;;;6.03;1.30;;;;;;;13.57;100.00;100816.20;5081058;56;1142940;-72
2023/10/04 00:34:13;;;;;;;4.33;1.10;;;;;;;13.51;100.00;100820.22;5079473;56;1140579;-73
2023/10/04 00:39:19;;;;;;;12.27;1.83;;;;;;;13.48;100.00;100816.48;5098846;56;1140804;-73
2023/10/04 00:44:24;;;;;;;7.43;1.67;;;;;;;13.44;100.00;100835.02;5078413;56;1142872;-72
2023/10/04 00:49:31;;;;;;;5.17;1.73;;;;;;;13.41;100.00;100847.22;5102660;56;1140864;-73
2023/10/04 00:54:37;;;;;;;5.00;1.20;;;;;;;13.35;100.00;100859.67;5163028;55;1140733;-73
2023/10/04 00:59:45;;;;;;;9.40;2.30;;;;;;;13.32;100.00;100865.23;5168325;55;1140976;-72
2023/10/04 01:04:51;;;;;;;6.73;1.97;;;;;;;13.28;100.00;100866.01;5186360;55;1140737;-73
2023/10/04 01:09:58;;;;;;;7.35;2.10;;;;;;;13.27;100.00;100874.94;5186626;55;1140905;-72
2023/10/04 01:15:29;;;;;;;4.15;1.25;;;;;;;13.25;100.00;100885.33;5206906;55;1141018;-73
2023/10/04 01:20:14;;;;;;;8.68;1.70;;;;;;;13.23;100.00;100896.56;5182268;56;1140958;-73
2023/10/04 01:25:20;;;;;;;5.50;1.87;;;;;;;13.28;100.00;100908.98;5166307;55;1140947;-73
2023/10/04 01:30:26;;;;;;;14.30;2.27;;;;;;;13.29;100.00;100915.48;5124180;56;1141132;-73
2023/10/04 01:35:33;;;;;;;10.77;1.70;;;;;;;13.29;100.00;100915.99;5099388;56;1142969;-73
2023/10/04 01:40:39;;;;;;;5.37;1.90;;;;;;;13.29;100.00;100926.10;5100038;56;1142913;-73
2023/10/04 01:45:51;;;;;;;5.87;1.67;;;;;;;13.30;100.00;100929.13;5119438;56;1140606;-73
2023/10/04 01:50:57;;;;;;;2.40;1.17;;;;;;;13.28;100.00;100918.28;5108503;56;1140675;-73
2023/10/04 01:56:10;;;;;;;6.95;1.40;;;;;;;13.27;100.00;100930.72;5200961;55;1150278;-74
2023/10/04 02:01:12;;;;;;;6.78;1.87;;;;;;;13.22;100.00;100928.92;5189072;55;1140786;-72
2023/10/04 02:06:17;;;;;;;6.15;2.70;;;;;;;13.19;100.00;100932.30;5165440;55;1140628;-72
2023/10/04 02:11:23;;;;;;;10.10;2.73;;;;;;;13.11;100.00;100944.87;5164953;55;1140706;-73
2023/10/04 02:16:29;;;;;;;3.87;1.57;;;;;;;13.11;100.00;100954.16;5185173;55;1142923;-72
2023/10/04 02:21:34;;;;;;;6.40;2.00;;;;;;;13.06;100.00;100952.83;5164213;55;1140849;-72
2023/10/04 02:26:41;;;;;;;9.47;1.83;;;;;;;13.00;100.00;100960.32;5122210;55;1140820;-73
2023/10/04 02:31:47;;;;;;;8.83;2.70;;;;;;;12.97;100.00;100959.75;5084730;55;1140968;-74
2023/10/04 02:36:55;;;;;;;10.37;1.93;;;;;;;12.94;100.00;100961.31;5096346;56;1140935;-72
2023/10/04 02:42:03;;;;;;;7.83;1.70;;;;;;;12.89;100.00;100976.27;5128261;56;1143356;-72
2023/10/04 02:47:08;;;;;;;4.23;1.37;;;;;;;12.92;100.00;100975.19;5163918;55;1140979;-72
2023/10/04 02:52:15;;;;;;;4.72;1.40;;;;;;;12.87;100.00;100976.88;5123665;56;1141053;-73
2023/10/04 02:57:20;;;;;;;8.13;2.25;;;;;;;12.91;100.00;100988.95;5041279;56;1140624;-72
2023/10/04 03:02:26;;;;;;;5.70;1.80;;;;;;;12.95;100.00;100983.77;4942798;57;1140707;-72
2023/10/04 03:07:34;;;;;;;5.87;1.60;;;;;;;12.99;100.00;100994.95;5038398;56;1141043;-72
2023/10/04 03:12:41;;;;;;;5.37;1.63;;;;;;;12.97;100.00;101001.75;5026040;56;1140782;-73
2023/10/04 03:17:46;;;;;;;9.73;1.70;;;;;;;12.99;100.00;100994.47;5109159;56;1141069;-72
2023/10/04 03:23:09;;;;;;;11.13;2.10;;;;;;;12.93;100.00;100996.80;5017912;57;1141041;-73
2023/10/04 03:28:05;;;;;;;3.37;1.70;;;;;;;12.89;100.00;101008.13;5040837;56;1143198;-74
2023/10/04 03:33:12;;;;;;;6.65;1.70;;;;;;;12.83;100.00;101016.56;5029167;56;1141035;-73
2023/10/04 03:38:19;;;;;;;12.47;1.87;;;;;;;12.78;100.00;101013.94;4980436;56;1140788;-73
2023/10/04 03:43:25;;;;;;;6.13;1.47;;;;;;;12.73;100.00;101017.42;5030770;56;1143065;-73
2023/10/04 03:48:33;;;;;;;7.40;2.23;;;;;;;12.68;100.00;101014.64;5016764;56;1140946;-72
2023/10/04 03:53:44;;;;;;;7.37;1.90;;;;;;;12.67;100.00;101022.75;5097396;56;1141130;-73
2023/10/04 03:58:50;;;;;;;6.63;1.80;;;;;;;12.61;100.00;101021.89;5052056;56;1140993;-73
2023/10/04 04:04:02;;;;;;;6.57;1.97;;;;;;;12.56;100.00;101025.38;5058984;57;1140994;-73
2023/10/04 04:09:08;;;;;;;9.53;1.97;;;;;;;12.53;100.00;101027.78;4965190;57;1140920;-73
2023/10/04 04:14:11;;;;;;;6.83;1.60;;;;;;;12.50;100.00;101023.22;4939456;57;1140780;-73
2023/10/04 04:19:19;;;;;;;8.85;2.87;;;;;;;12.46;100.00;101023.93;4884512;58;1140946;-73
2023/10/04 04:24:25;;;;;;;8.63;1.70;;;;;;;12.44;100.00;101017.89;4875729;57;1140951;-71
2023/10/04 04:29:31;;;;;;;10.33;2.27;;;;;;;12.42;100.00;101027.77;4986893;57;1140862;-72
2023/10/04 04:34:41;;;;;;;8.03;1.87;;;;;;;12.38;100.00;101039.58;5009108;58;1142837;-72
2023/10/04 04:39:46;;;;;;;6.00;2.13;;;;;;;12.37;100.00;101033.09;4935200;58;1141158;-72
2023/10/04 04:44:56;;;;;;;7.87;2.77;;;;;;;12.33;100.00;101033.80;4911583;57;1140823;-72
2023/10/04 04:49:59;;;;;;;10.23;1.80;;;;;;;12.31;100.00;101043.67;4958317;57;1140941;-73
2023/10/04 04:55:07;;;;;;;8.13;1.93;;;;;;;12.30;100.00;101041.98;4896873;58;1262923;-73
2023/10/04 05:00:33;;;;;;;8.60;2.22;;;;;;;12.27;100.00;101048.36;4886105;58;1140870;-73
2023/10/04 05:05:41;;;;;;;6.57;1.87;;;;;;;12.27;100.00;101057.64;4878594;58;1141029;-72
2023/10/04 05:10:49;;;;;;;8.00;1.92;;;;;;;12.28;100.00;101060.66;4935378;57;1140940;-74
2023/10/04 05:15:56;;;;;;;6.13;1.83;;;;;;;12.26;100.00;101061.73;4990868;57;1141232;-72
2023/10/04 05:21:02;;;;;;;8.57;1.87;;;;;;;12.23;100.00;101056.66;4941432;56;1140921;-71
2023/10/04 05:26:13;;;;;;;3.93;1.93;;;;;;;12.22;100.00;101067.75;4943842;57;1140901;-71
2023/10/04 05:31:15;;;;;;;11.60;1.92;;;;;;;12.26;100.00;101063.91;4923135;57;1140855;-72
2023/10/04 05:36:22;;;;;;;10.00;2.67;;;;;;;12.24;100.00;101072.94;4877211;57;1143106;-72
2023/10/04 05:41:31;;;;;;;7.00;2.05;;;;;;;12.31;100.00;101082.14;4823947;59;1142595;-72
2023/10/04 05:46:35;;;;;;;10.27;2.53;;;;;;;12.33;100.00;101100.95;4853243;58;1140874;-71
2023/10/04 05:51:40;;;;;;;17.03;3.93;;;;;;;12.38;100.00;101100.59;5024902;57;1143001;-73
2023/10/04 05:56:46;;;;;;;10.33;3.57;;;;;;;12.42;100.00;101106.03;4939313;58;1142990;-74
2023/10/04 06:01:51;;;;;;;19.90;4.73;;;;;;;12.45;100.00;101118.22;4958050;57;1142957;-73
2023/10/04 06:06:57;;;;;;;9.77;3.13;;;;;;;12.47;100.00;101126.44;4996993;57;1143069;-73
2023/10/04 06:12:04;;;;;;;9.07;3.83;;;;;;;12.48;100.00;101126.80;5032896;56;1140798;-76
2023/10/04 06:17:10;;;;;;;5.93;2.70;;;;;;;12.53;100.00;101133.91;5082425;56;1140765;-73
2023/10/04 06:22:16;;;;;;;7.22;2.30;;;;;;;12.58;100.00;101132.24;5098188;56;1140839;-72
2023/10/04 06:27:21;;;;;;;7.10;2.30;;;;;;;12.61;100.00;101131.54;5077603;56;1140772;-73
2023/10/04 06:32:27;;;;;;;6.77;2.00;;;;;;;12.67;100.00;101121.80;5076128;57;1140828;-74
2023/10/04 06:37:32;;;;;;;9.13;2.53;;;;;;;12.75;100.00;101119.86;5014671;57;1140680;-73
2023/10/04 06:42:39;;;;;;;5.03;2.17;;;;;;;12.82;100.00;101128.20;5078623;56;1140710;-74
2023/10/04 06:47:49;;;;;;;11.10;2.57;;;;;;;12.87;100.00;101132.18;5088950;55;1140615;-73
2023/10/04 06:52:58;;;;;;;9.23;2.40;;;;;;;12.97;100.00;101137.64;5072142;56;1143057;-73
2023/10/04 06:58:04;;;;;;;7.17;2.17;;;;;;;13.03;100.00;101143.30;5060503;56;1140514;-72
2023/10/04 07:03:10;;;;;;;5.53;1.80;;;;;;;13.11;100.00;101157.81;5054072;56;1140984;-74
2023/10/04 07:08:16;;;;;;;14.67;2.13;;;;;;;13.19;100.00;101162.05;4999075;56;1140989;-75
2023/10/04 07:13:22;;;;;;;7.15;2.42;;;;;;;13.23;100.00;101171.48;5101510;56;1143190;-73
2023/10/04 07:18:27;;;;;;;9.47;2.13;;;;;;;13.22;100.00;101173.77;5129493;55;1140666;-75
2023/10/04 07:23:33;;;;;;;5.43;2.30;;;;;;;13.24;100.00;101170.52;5084949;56;1141062;-73
2023/10/04 07:28:41;;;;;;;9.53;2.37;;;;;;;13.24;100.00;101183.80;5121435;55;1141115;-75
2023/10/04 07:33:50;;;;;;;6.87;2.20;;;;;;;13.25;100.00;101198.30;5078753;57;1140792;-74
2023/10/04 07:38:56;;;;;;;5.92;1.80;;;;;;;13.23;100.00;101191.41;5079438;56;1140546;-74
2023/10/04 07:44:03;;;;;;;8.37;2.43;;;;;;;13.28;100.00;101197.22;5166335;56;1140600;-73
2023/10/04 07:49:10;;;;;;;6.45;1.95;;;;;;;13.29;100.00;101205.55;5147674;55;1146268;-73
2023/10/04 07:54:18;;;;;;;9.40;2.77;;;;;;;13.27;100.00;101212.79;5075094;56;1140919;-73
2023/10/04 07:59:23;;;;;;;5.62;1.77;;;;;;;13.31;100.00;101209.75;5101548;56;1140666;-71
2023/10/04 08:04:30;;;;;;;2.90;1.60;;;;;;;13.36;100.00;101218.22;5078381;56;1140798;-73
2023/10/04 08:09:35;;;;;;;5.13;2.13;;;;;;;13.37;100.00;101231.02;5046108;56;1140854;-71
2023/10/04 08:14:41;;;;;;;10.17;2.47;;;;;;;13.39;100.00;101247.70;4999807;57;1141060;-73
2023/10/04 08:19:46;;;;;;;9.87;2.37;;;;;;;13.39;100.00;101247.70;4925009;57;1142854;-73
2023/10/04 08:24:53;;;;;;;7.17;1.90;;;;;;;13.40;100.00;101251.20;4974813;57;1141069;-73
2023/10/04 08:29:59;;;;;;;15.77;2.77;;;;;;;13.40;100.00;101257.36;5065821;56;1140841;-73
2023/10/04 08:35:06;;;;;;;8.93;1.97;;;;;;;13.43;100.00;101255.80;5000047;56;1143061;-73
2023/10/04 08:40:14;;;;;;;9.47;2.03;;;;;;;13.50;100.00;101267.63;4881242;58;1140829;-73
2023/10/04 08:45:22;;;;;;;4.90;1.62;;;;;;;13.49;100.00;101261.09;5032565;56;1141100;-73
2023/10/04 08:50:32;;;;;;;7.58;1.85;;;;;;;13.48;100.00;101254.94;4897026;57;1140926;-72
2023/10/04 08:55:41;;;;;;;6.87;1.80;;;;;;;13.51;100.00;101258.69;4973847;56;1140791;-73
2023/10/04 09:00:48;;;;;;;9.30;2.47;;;;;;;13.59;100.00;101260.77;5018158;56;1140770;-74
2023/10/04 09:05:54;;;;;;;21.77;2.57;;;;;;;13.68;100.00;101264.86;4949292;57;1141004;-72
2023/10/04 09:11:08;;;;;;;4.33;1.60;;;;;;;13.69;100.00;101249.28;4976728;57;1143000;-72
2023/10/04 09:16:31;;;;;;;6.20;2.37;;;;;;;13.73;100.00;101257.87;4940431;58;1140876;-73
2023/10/04 09:21:41;;;;;;;4.90;2.00;;;;;;;13.80;100.00;101257.72;4878077;58;1140676;-73
2023/10/04 09:26:54;;;;;;;5.50;1.73;;;;;;;13.83;100.00;101260.63;4884557;57;1140710;-72
2023/10/04 09:32:01;;;;;;;9.30;2.37;;;;;;;13.75;100.00;101247.93;4862396;58;1140863;-73
2023/10/04 09:37:26;;;;;;;6.17;1.77;;;;;;;13.78;100.00;101272.10;4927205;57;1140910;-72
2023/10/04 09:42:29;;;;;;;6.35;1.42;;;;;;;13.78;100.00;101281.41;4915866;57;1140834;-73
2023/10/04 09:47:39;;;;;;;6.53;1.90;;;;;;;13.78;100.00;101277.42;4862535;58;1140955;-73
2023/10/04 09:52:45;;;;;;;6.17;1.70;;;;;;;13.84;100.00;101276.95;4891948;58;1140760;-73
2023/10/04 09:57:56;;;;;;;9.00;2.50;;;;;;;13.94;100.00;101269.44;4892543;57;1140768;-74
2023/10/04 10:03:06;;;;;;;6.83;2.33;;;;;;;14.08;100.00;101273.65;4871439;57;1140690;-73
2023/10/04 10:08:15;;;;;;;9.65;2.62;;;;;;;14.34;100.00;101276.89;4900138;58;1144460;-74
2023/10/04 10:13:23;;;;;;;10.80;2.05;;;;;;;14.46;100.00;101276.40;4927539;57;1140864;-73
2023/10/04 10:18:28;;;;;;;7.20;2.17;;;;;;;14.41;100.00;101283.42;4949898;56;1142986;-74
2023/10/04 10:24:09;;;;;;;7.40;2.27;;;;;;;14.38;100.00;101295.13;5070325;56;1141183;-73
2023/10/04 10:29:07;;;;;;;6.53;1.37;;;;;;;14.34;100.00;101288.86;5004213;57;1140630;-73
2023/10/04 10:34:14;;;;;;;19.50;3.20;;;;;;;14.29;100.00;101293.70;5009755;57;1140847;-73
2023/10/04 10:39:28;;;;;;;8.50;2.25;;;;;;;14.30;100.00;101302.89;5019037;56;1142836;-74
2023/10/04 10:44:34;;;;;;;8.15;1.65;;;;;;;14.39;100.00;101314.11;4960176;56;1140746;-73
2023/10/04 10:49:50;;;;;;;7.63;1.90;;;;;;;14.50;100.00;101296.48;5010214;56;1140890;-73
2023/10/04 10:54:51;;;;;;;8.47;2.20;;;;;;;14.79;100.00;101306.91;5038988;57;1141175;-75
2023/10/04 11:00:01;;;;;;;4.93;1.37;;;;;;;15.03;100.00;101304.01;5006510;57;1141086;-75
2023/10/04 11:05:09;;;;;;;8.17;2.30;;;;;;;15.14;100.00;101307.45;5037665;56;1140694;-74
2023/10/04 11:10:17;;;;;;;8.23;2.23;;;;;;;15.15;100.00;101301.64;5083989;56;1140940;-73
2023/10/04 11:15:27;;;;;;;5.05;1.92;;;;;;;15.25;100.00;101310.56;5113431;56;1140942;-73
2023/10/04 11:20:36;;;;;;;9.47;2.13;;;;;;;15.27;100.00;101291.78;5012042;56;1141039;-73
2023/10/04 11:25:40;;;;;;;7.53;2.20;;;;;;;15.30;100.00;101300.34;4985679;56;1140793;-73
2023/10/04 11:30:46;;;;;;;9.83;1.93;;;;;;;15.26;100.00;101296.27;5015842;56;1140768;-73
2023/10/04 11:35:52;;;;;;;6.83;1.67;;;;;;;15.23;100.00;101293.02;4978153;57;1140671;-73
2023/10/04 11:40:57;;;;;;;7.93;2.50;;;;;;;15.17;100.00;101294.85;5095919;55;1140749;-73
2023/10/04 11:46:03;;;;;;;7.93;2.60;;;;;;;15.15;100.00;101297.64;5008714;57;1141019;-73
2023/10/04 11:51:09;;;;;;;16.20;3.07;;;;;;;15.42;100.00;101285.15;4959528;57;1140802;-73
2023/10/04 11:56:15;;;;;;;8.60;1.63;;;;;;;15.77;100.00;101278.95;4970093;57;1143367;-75
2023/10/04 12:01:24;;;;;;;5.60;2.15;;;;;;;15.98;100.00;101274.90;4996935;57;1140861;-73
2023/10/04 12:06:33;;;;;;;14.28;2.30;;;;;;;15.88;100.00;101277.19;4938650;57;1140819;-73
2023/10/04 12:11:39;;;;;;;8.13;2.20;;;;;;;15.80;100.00;101265.35;4936940;57;1143021;-74
2023/10/04 12:16:45;;;;;;;10.73;3.23;;;;;;;15.91;100.00;101269.73;5023607;57;1141012;-75
2023/10/04 12:21:51;;;;;;;4.57;2.30;;;;;;;16.24;100.00;101276.58;4953322;57;1142826;-72
2023/10/04 12:26:58;;;;;;;12.67;3.57;;;;;;;16.36;100.00;101287.48;4993284;57;1141167;-72
2023/10/04 12:32:06;;;;;;;5.73;2.97;;;;;;;16.43;100.00;101283.30;5008135;56;1142778;-75
2023/10/04 12:37:12;;;;;;;5.70;2.50;;;;;;;16.51;100.00;101288.77;5029727;56;1140972;-75
2023/10/04 12:42:19;;;;;;;9.40;2.50;;;;;;;16.65;100.00;101268.05;4995155;57;1140764;-75
2023/10/04 12:47:25;;;;;;;13.80;3.37;;;;;;;16.58;100.00;101281.06;5011040;57;1141141;-75
2023/10/04 12:52:32;;;;;;;9.40;2.98;;;;;;;16.63;100.00;101272.68;5032808;57;1143098;-75
2023/10/04 12:57:40;;;;;;;11.07;2.80;;;;;;;16.56;100.00;101288.38;4947156;58;1140966;-74
2023/10/04 13:02:48;;;;;;;9.17;2.60;;;;;;;16.30;100.00;101275.20;5042583;56;1143078;-75
2023/10/04 13:07:56;;;;;;;10.43;2.90;;;;;;;16.30;100.00;101275.20;4970187;57;1140902;-75
2023/10/04 13:13:03;;;;;;;8.13;2.70;;;;;;;16.16;100.00;101287.11;4996447;57;1142964;-75
2023/10/04 13:18:11;;;;;;;12.67;3.70;;;;;;;15.94;100.00;101291.30;4991426;57;1140830;-74
2023/10/04 13:23:16;;;;;;;5.43;2.53;;;;;;;15.74;100.00;101295.22;4930433;57;1143074;-75
2023/10/04 13:28:27;;;;;;;5.45;2.90;;;;;;;15.70;100.00;101303.15;5027655;57;1140783;-76
2023/10/04 13:33:30;;;;;;;4.92;2.60;;;;;;;15.88;100.00;101295.38;5118029;56;1140742;-74
2023/10/04 13:38:35;;;;;;;9.03;2.70;;;;;;;15.96;100.00;101291.53;5012700;57;1140761;-74
2023/10/04 13:43:41;;;;;;;9.10;3.10;;;;;;;16.07;100.00;101291.42;5025043;57;1140930;-75
2023/10/04 13:48:49;;;;;;;10.80;3.37;;;;;;;16.29;100.00;101300.20;5076685;56;1140839;-73
2023/10/04 13:53:54;;;;;;;8.37;2.97;;;;;;;16.41;100.00;101299.09;5034593;56;1142839;-74
2023/10/04 13:59:00;;;;;;;8.15;3.22;;;;;;;16.35;100.00;101295.63;5033434;56;1140858;-75
2023/10/04 14:04:06;;;;;;;10.40;3.17;;;;;;;16.27;100.00;101303.50;5056077;56;1140936;-75
2023/10/04 14:09:17;;;;;;;7.90;2.60;;;;;;;16.26;100.00;101306.66;5038476;56;1142934;-74
2023/10/04 14:14:19;;;;;;;7.87;3.30;;;;;;;16.23;100.00;101314.08;5021977;56;1140948;-74
2023/10/04 14:19:25;;;;;;;5.72;2.27;;;;;;;16.17;100.00;101319.00;5103554;56;1141197;-75
2023/10/04 14:24:31;;;;;;;7.10;3.17;;;;;;;16.13;100.00;101319.40;5019207;57;1140812;-74
2023/10/04 14:29:36;;;;;;;8.60;2.67;;;;;;;16.12;100.00;101316.38;4917910;57;1140924;-74
2023/10/04 14:34:42;;;;;;;9.53;2.93;;;;;;;16.07;100.00;101314.59;5014122;57;1140961;-74
2023/10/04 14:39:50;;;;;;;7.00;2.52;;;;;;;15.99;100.00;101313.09;4983392;57;1140948;-75
2023/10/04 14:44:55;;;;;;;5.70;2.25;;;;;;;15.90;100.00;101311.22;5072045;56;1140943;-75
2023/10/04 14:50:00;;;;;;;6.90;2.52;;;;;;;15.78;100.00;101308.65;5099224;56;1141064;-75
2023/10/04 14:55:07;;;;;;;6.07;2.33;;;;;;;15.75;100.00;101309.39;5078232;56;1140765;-74
2023/10/04 15:00:17;;;;;;;6.57;2.17;;;;;;;15.72;100.00;101313.20;4995802;56;1140763;-74
2023/10/04 15:05:20;;;;;;;7.77;2.43;;;;;;;15.69;100.00;101319.28;4939445;57;1140909;-75
2023/10/04 15:10:26;;;;;;;6.63;2.53;;;;;;;15.63;100.00;101318.47;4948617;56;1140924;-76
2023/10/04 15:15:33;;;;;;;9.57;2.40;;;;;;;15.59;100.00;101323.20;5079685;56;1140522;-75
2023/10/04 15:20:39;;;;;;;12.87;4.17;;;;;;;15.55;100.00;101329.80;5057050;56;1140855;-76
2023/10/04 15:25:44;;;;;;;11.37;2.63;;;;;;;15.54;100.00;101333.41;5040982;56;1142840;-74
2023/10/04 15:30:51;;;;;;;5.80;3.50;;;;;;;15.56;100.00;101334.65;5093605;56;1143056;-74
2023/10/04 15:35:56;;;;;;;12.07;3.08;;;;;;;15.60;100.00;101341.39;5023667;56;1140929;-75
2023/10/04 15:41:03;;;;;;;7.57;2.97;;;;;;;15.79;100.00;101334.34;5115584;56;1143083;-75
2023/10/04 15:46:09;;;;;;;9.37;2.77;;;;;;;16.03;100.00;101331.38;5099202;56;1141151;-74
2023/10/04 15:51:14;;;;;;;10.13;2.30;;;;;;;16.03;100.00;101333.20;4964084;57;1141027;-74
2023/10/04 15:56:20;;;;;;;8.70;2.10;;;;;;;15.96;100.00;101342.70;4938541;58;1143139;-75
2023/10/04 16:01:26;;;;;;;6.23;2.83;;;;;;;15.85;100.00;101348.98;5091808;56;1140708;-75
2023/10/04 16:06:31;;;;;;;6.00;2.45;;;;;;;15.47;100.00;101354.89;5099449;56;1140761;-75
2023/10/04 16:11:37;;;;;;;9.88;2.12;;;;;;;15.19;100.00;101350.20;5119300;56;1141026;-73
2023/10/04 16:16:43;;;;;;;6.57;2.87;;;;;;;15.01;100.00;101365.89;5099519;56;1140766;-76
2023/10/04 16:21:48;;;;;;;6.60;2.47;;;;;;;14.82;100.00;101365.22;5098724;56;1140796;-74
2023/10/04 16:26:54;;;;;;;8.76;2.62;;;;;;;14.69;100.00;101368.53;5099047;56;1140854;-73
2023/10/04 16:31:59;;;;;;;5.30;2.10;;;;;;;14.59;100.00;101368.44;5107426;56;1140803;-73
2023/10/04 16:37:07;;;;;;;7.17;3.07;;;;;;;14.47;100.00;101369.44;5078023;56;1140721;-73
2023/10/04 16:42:12;;;;;;;6.47;2.50;;;;;;;14.36;100.00;101379.55;5078499;56;1140979;-73
2023/10/04 16:47:18;;;;;;;6.10;3.33;;;;;;;14.28;100.00;101376.67;5108668;56;1140664;-73
2023/10/04 16:52:25;;;;;;;4.33;1.90;;;;;;;14.21;100.00;101376.78;5164227;55;1140779;-74
2023/10/04 16:57:30;;;;;;;8.18;2.42;;;;;;;14.14;100.00;101386.23;5095728;56;1141207;-75
2023/10/04 17:02:37;;;;;;;13.78;2.33;;;;;;;14.03;100.00;101387.08;4968366;58;1141387;-74
2023/10/04 17:07:42;;;;;;;5.23;1.90;;;;;;;13.96;100.00;101396.49;4996396;57;1143378;-74
2023/10/04 17:12:48;;;;;;;10.87;3.20;;;;;;;13.90;100.00;101398.80;4952095;58;1140863;-75
2023/10/04 17:17:54;;;;;;;5.42;2.12;;;;;;;13.82;100.00;101408.69;4987259;57;1143007;-75
2023/10/04 17:22:59;;;;;;;7.47;2.60;;;;;;;13.77;100.00;101408.18;4989028;57;1140852;-74
2023/10/04 17:28:06;;;;;;;8.63;2.27;;;;;;;13.72;100.00;101405.89;5079026;56;1140938;-74
2023/10/04 17:33:12;;;;;;;11.00;3.27;;;;;;;13.65;100.00;101411.30;5067256;56;1140849;-75
2023/10/04 17:38:17;;;;;;;7.83;2.80;;;;;;;13.59;100.00;101409.61;5062424;57;1142854;-74
2023/10/04 17:43:23;;;;;;;6.53;2.93;;;;;;;13.52;100.00;101407.89;4996005;56;1140731;-74
2023/10/04 17:48:29;;;;;;;15.50;4.17;;;;;;;13.54;100.00;101409.10;5026207;56;1140771;-74
2023/10/04 17:53:36;;;;;;;11.48;4.22;;;;;;;13.54;100.00;101411.28;5060794;56;1143001;-73
2023/10/04 17:58:43;;;;;;;17.23;7.40;;;;;;;13.52;100.00;101416.34;4995588;56;1143198;-73
2023/10/04 18:03:49;;;;;;;18.50;7.63;;;;;;;13.49;100.00;101416.09;4992454;57;1142902;-72
2023/10/04 18:08:55;;;;;;;22.80;13.05;;;;;;;13.43;100.00;101413.91;4996499;57;1143164;-73
2023/10/04 18:14:01;;;;;;;13.27;6.83;;;;;;;13.37;100.00;101411.70;4935471;57;1145172;-75
2023/10/04 18:19:07;;;;;;;22.20;12.60;;;;;;;13.33;100.00;101407.56;4936252;57;1142947;-73
2023/10/04 18:24:13;;;;;;;26.30;12.03;;;;;;;13.29;100.00;101412.26;4916307;57;1145309;-71
2023/10/04 18:29:18;;;;;;;11.70;5.30;;;;;;;13.30;100.00;101408.64;5015704;57;1145074;-74
2023/10/04 18:34:28;;;;;;;14.23;5.67;;;;;;;13.32;100.00;101413.84;4936486;57;1143798;-72
2023/10/04 18:39:34;;;;;;;8.05;3.87;;;;;;;13.30;100.00;101413.95;4943998;56;1143002;-72
2023/10/04 18:44:39;;;;;;;10.35;5.22;;;;;;;13.26;100.00;101411.19;4988080;56;1140806;-72
2023/10/04 18:49:45;;;;;;;11.50;5.37;;;;;;;13.20;100.00;101412.11;4942669;57;1142739;-72
2023/10/04 18:54:52;;;;;;;10.07;4.60;;;;;;;13.12;100.00;101410.00;5014352;57;1142777;-72
2023/10/04 18:59:58;;;;;;;11.48;4.67;;;;;;;13.06;100.00;101413.58;5062750;56;1142936;-72
2023/10/04 19:05:04;;;;;;;13.07;4.17;;;;;;;13.04;100.00;101412.36;5127153;56;1142789;-72
2023/10/04 19:10:10;;;;;;;13.13;4.50;;;;;;;13.04;100.00;101417.19;5104853;56;1142745;-73
2023/10/04 19:15:16;;;;;;;12.90;4.10;;;;;;;13.03;100.00;101418.62;5161554;56;1143128;-72
2023/10/04 19:20:23;;;;;;;8.43;4.47;;;;;;;12.96;100.00;101416.92;5157530;55;1152596;-72
2023/10/04 19:25:29;;;;;;;7.83;3.37;;;;;;;12.89;100.00;101415.66;5021715;56;1140811;-72
2023/10/04 19:30:36;;;;;;;10.03;3.87;;;;;;;12.87;100.00;101422.03;4939220;57;1140931;-72
2023/10/04 19:35:45;;;;;;;11.60;4.73;;;;;;;12.83;100.00;101429.38;4959847;57;1142958;-72
2023/10/04 19:40:51;;;;;;;12.53;5.20;;;;;;;12.81;100.00;101423.83;4994335;57;1142857;-72
2023/10/04 19:45:56;;;;;;;12.73;4.40;;;;;;;12.76;100.00;101424.16;4963457;56;1143056;-72
2023/10/04 19:51:02;;;;;;;10.27;4.90;;;;;;;12.72;100.00;101423.15;5009452;56;1142999;-72
2023/10/04 19:56:08;;;;;;;9.37;4.17;;;;;;;12.66;100.00;101425.78;4989714;56;1142738;-72
2023/10/04 20:01:18;;;;;;;10.37;3.80;;;;;;;12.66;100.00;101426.63;5052946;56;1140864;-71
2023/10/04 20:06:23;;;;;;;14.57;5.53;;;;;;;12.66;100.00;101423.13;5031651;56;1152929;-73
2023/10/04 20:11:30;;;;;;;15.70;7.05;;;;;;;12.67;100.00;101416.39;4996755;57;1143119;-72
2023/10/04 20:16:36;;;;;;;12.23;5.67;;;;;;;12.67;100.00;101421.70;4996793;57;1143254;-72
2023/10/04 20:21:42;;;;;;;12.83;5.47;;;;;;;12.65;100.00;101412.14;5064607;57;1142926;-72
2023/10/04 20:26:49;;;;;;;13.05;5.00;;;;;;;12.64;100.00;101411.30;5040736;57;1142827;-72
2023/10/04 20:31:54;;;;;;;14.98;6.78;;;;;;;12.65;100.00;101405.03;5078136;56;1142825;-72
2023/10/04 20:37:00;;;;;;;18.03;6.50;;;;;;;12.67;100.00;101400.94;5007763;56;1142813;-71
2023/10/04 20:42:07;;;;;;;12.90;5.63;;;;;;;12.66;100.00;101403.23;5098282;55;1142789;-72
2023/10/04 20:47:13;;;;;;;10.73;4.80;;;;;;;12.67;100.00;101406.25;5077972;56;1143387;-72
2023/10/04 20:52:20;;;;;;;18.70;5.77;;;;;;;12.66;100.00;101402.75;5078640;56;1142647;-72
2023/10/04 20:57:25;;;;;;;10.67;5.07;;;;;;;12.64;100.00;101397.17;5015194;57;1150383;-72
2023/10/04 21:02:31;;;;;;;10.63;4.45;;;;;;;12.63;100.00;101391.02;4995680;56;1142658;-73
2023/10/04 21:07:36;;;;;;;8.53;3.90;;;;;;;12.60;100.00;101379.77;5020109;56;1143062;-72
2023/10/04 21:12:42;;;;;;;15.47;4.90;;;;;;;12.56;100.00;101381.79;4966304;57;1140995;-71
2023/10/04 21:17:48;;;;;;;12.43;4.90;;;;;;;12.56;100.00;101382.27;4985193;58;1143208;-72
2023/10/04 21:22:54;;;;;;;10.80;3.90;;;;;;;12.55;100.00;101376.59;4957608;57;1143012;-72
2023/10/04 21:27:59;;;;;;;7.87;4.03;;;;;;;12.52;100.00;101370.20;4980976;56;1142990;-72
2023/10/04 21:33:16;;;;;;;14.63;4.23;;;;;;;12.48;100.00;101368.72;4993245;57;1140878;-72
2023/10/04 21:38:19;;;;;;;7.83;3.90;;;;;;;12.47;100.00;101371.00;5018225;57;1142726;-72
2023/10/04 21:43:21;;;;;;;9.18;4.03;;;;;;;12.45;100.00;101367.13;4991232;56;1141115;-72
2023/10/04 21:48:29;;;;;;;11.20;4.17;;;;;;;12.44;100.00;101364.58;5055063;57;1140949;-72
2023/10/04 21:53:34;;;;;;;9.30;4.10;;;;;;;12.43;100.00;101358.43;5051539;56;1143095;-72
2023/10/04 21:58:40;;;;;;;12.98;4.05;;;;;;;12.43;100.00;101356.25;5051774;56;1140855;-72
2023/10/04 22:03:46;;;;;;;9.47;4.23;;;;;;;12.42;100.00;101350.09;5115411;56;1142893;-72
2023/10/04 22:08:54;;;;;;;10.38;4.37;;;;;;;12.41;100.00;101338.27;5035100;56;1140741;-73
2023/10/04 22:13:59;;;;;;;10.13;4.53;;;;;;;12.39;100.00;101332.22;5049581;56;1143045;-72
2023/10/04 22:19:12;;;;;;;13.07;4.60;;;;;;;12.40;100.00;101329.94;5103312;56;1143138;-72
2023/10/04 22:24:14;;;;;;;13.23;4.43;;;;;;;12.38;100.00;101322.09;5089232;56;1142894;-72
2023/10/04 22:29:20;;;;;;;7.10;3.83;;;;;;;12.35;100.00;101317.03;5095714;56;1142556;-72
2023/10/04 22:34:26;;;;;;;12.13;3.90;;;;;;;12.30;100.00;101317.36;5116787;56;1140655;-74
2023/10/04 22:39:34;;;;;;;10.32;4.58;;;;;;;12.26;100.00;101305.27;5085403;56;1143167;-72
2023/10/04 22:44:40;;;;;;;10.03;4.20;;;;;;;12.24;100.00;101297.04;5106605;56;1143048;-72
2023/10/04 22:49:46;;;;;;;9.27;4.40;;;;;;;12.22;100.00;101295.01;5136990;56;1143132;-72
2023/10/04 22:54:52;;;;;;;12.53;4.87;;;;;;;12.24;100.00;101285.11;5123843;56;1140725;-72